Time;durP1;ratioP1;P1;durP2;ratioP2;P2;SDS_P1;SDS_P2;PMS_P1;PMS_P2;Temp;Humidity;BMP_temperature;BMP_pressure;BME280_temperature;BME280_humidity;BME280_pressure;Samples;Min_cycle;Max_cycle;Signal;HPM_P1;HPM_P2
2022/03/23 00:01:30;;;;;;;0.00;0.00;;;10.30;51.30;;;;;;4110441;28;20470;-72
2022/03/23 00:03:56;;;;;;;0.00;0.00;;;10.30;51.20;;;;;;4086928;28;20134;-75
2022/03/23 00:06:24;;;;;;;0.00;0.00;;;10.30;51.20;;;;;;4087932;28;20067;-76
2022/03/23 00:08:51;;;;;;;0.00;0.00;;;10.30;51.10;;;;;;4069549;29;20052;-76
2022/03/23 00:11:13;;;;;;;0.00;0.00;;;10.30;51.10;;;;;;4085782;29;20044;-76
2022/03/23 00:13:38;;;;;;;0.00;0.00;;;10.30;51.20;;;;;;4085856;29;20074;-74
2022/03/23 00:16:04;;;;;;;0.00;0.00;;;10.10;51.30;;;;;;4085623;29;20055;-74
2022/03/23 00:18:28;;;;;;;0.00;0.00;;;10.00;51.30;;;;;;4098603;28;20051;-75
2022/03/23 00:20:51;;;;;;;0.00;0.00;;;10.00;51.20;;;;;;4079347;28;20051;-75
2022/03/23 00:23:13;;;;;;;0.00;0.00;;;10.00;51.20;;;;;;4095048;28;20094;-73
2022/03/23 00:25:36;;;;;;;0.00;0.00;;;10.00;51.20;;;;;;4088452;29;20085;-74
2022/03/23 00:27:59;;;;;;;0.00;0.00;;;10.00;51.20;;;;;;4101379;28;20087;-74
2022/03/23 00:30:23;;;;;;;0.00;0.00;;;10.00;51.10;;;;;;4050900;28;20503;-74
2022/03/23 00:32:52;;;;;;;0.00;0.00;;;9.90;51.10;;;;;;4117723;28;20058;-73
2022/03/23 00:35:17;;;;;;;0.00;0.00;;;9.90;51.20;;;;;;4104173;28;20039;-75
2022/03/23 00:37:43;;;;;;;0.00;0.00;;;9.90;51.40;;;;;;4091157;28;20054;-74
2022/03/23 00:40:06;;;;;;;0.00;0.00;;;9.80;52.10;;;;;;4103554;28;20073;-74
2022/03/23 00:42:28;;;;;;;0.00;0.00;;;9.70;51.80;;;;;;4074468;29;20060;-77
2022/03/23 00:44:57;;;;;;;0.00;0.00;;;9.60;51.90;;;;;;4075413;29;20111;-72
2022/03/23 00:47:22;;;;;;;0.00;0.00;;;9.60;52.10;;;;;;4061920;29;20058;-75
2022/03/23 00:49:49;;;;;;;0.00;0.00;;;9.50;52.10;;;;;;4087981;29;20056;-74
2022/03/23 00:52:11;;;;;;;0.00;0.00;;;9.50;52.10;;;;;;4101756;28;20047;-75
2022/03/23 00:54:34;;;;;;;0.00;0.00;;;9.50;52.10;;;;;;4077754;28;20788;-72
2022/03/23 00:56:59;;;;;;;0.00;0.00;;;9.50;52.80;;;;;;4090825;28;20142;-73
2022/03/23 00:59:26;;;;;;;0.00;0.00;;;9.50;52.40;;;;;;4093759;29;20106;-73
2022/03/23 01:01:49;;;;;;;0.00;0.00;;;9.40;52.70;;;;;;4075018;29;20503;-71
2022/03/23 01:04:13;;;;;;;0.00;0.00;;;9.40;52.70;;;;;;4100769;29;20052;-73
2022/03/23 01:06:35;;;;;;;0.00;0.00;;;9.40;52.60;;;;;;4101294;28;20051;-73
2022/03/23 01:09:05;;;;;;;0.00;0.00;;;9.40;52.70;;;;;;4087723;29;20048;-72
2022/03/23 01:11:33;;;;;;;0.00;0.00;;;9.40;52.90;;;;;;4113457;28;20051;-74
2022/03/23 01:14:02;;;;;;;;;;;9.40;52.80;;;;;;4088724;28;20054;-71
2022/03/23 01:16:26;;;;;;;0.00;0.00;;;9.40;52.70;;;;;;4100698;29;19985;-74
2022/03/23 01:18:52;;;;;;;0.00;0.00;;;9.40;52.80;;;;;;4075680;29;20078;-72
2022/03/23 01:21:20;;;;;;;0.00;0.00;;;9.30;52.90;;;;;;4111431;28;20055;-72
2022/03/23 01:23:47;;;;;;;0.00;0.00;;;9.30;53.10;;;;;;4103928;28;20441;-73
2022/03/23 01:26:20;;;;;;;0.00;0.00;;;9.30;53.20;;;;;;4116611;28;20109;-73
2022/03/23 01:28:52;;;;;;;0.00;0.00;;;9.20;53.40;;;;;;4116637;28;20064;-73
2022/03/23 01:31:30;;;;;;;0.00;0.00;;;9.20;53.40;;;;;;4104172;28;20122;-73
2022/03/23 01:34:04;;;;;;;0.00;0.00;;;9.10;53.60;;;;;;4091299;28;20143;-74
2022/03/23 01:36:34;;;;;;;0.00;0.00;;;9.10;53.70;;;;;;4090180;28;20371;-73
2022/03/23 01:39:16;;;;;;;0.00;0.00;;;9.10;53.80;;;;;;4105880;28;20061;-71
2022/03/23 01:41:50;;;;;;;0.00;0.00;;;9.00;53.90;;;;;;4116492;28;20066;-73
2022/03/23 01:44:19;;;;;;;0.00;0.00;;;9.00;53.80;;;;;;4102523;28;20137;-73
2022/03/23 01:47:00;;;;;;;0.00;0.00;;;9.00;53.90;;;;;;4103194;28;20115;-74
2022/03/23 01:49:28;;;;;;;0.00;0.00;;;8.90;53.90;;;;;;4076641;28;20423;-74
2022/03/23 01:51:50;;;;;;;0.00;0.00;;;8.90;53.70;;;;;;4116255;28;20418;-73
2022/03/23 01:54:26;;;;;;;0.00;0.00;;;9.00;53.60;;;;;;4102671;28;20102;-73
2022/03/23 01:57:11;;;;;;;0.00;0.00;;;9.00;53.60;;;;;;4073012;29;20065;-72
2022/03/23 01:59:45;;;;;;;0.00;0.00;;;9.00;53.50;;;;;;4088170;29;20134;-74
2022/03/23 02:02:20;;;;;;;0.00;0.00;;;9.00;53.60;;;;;;4089465;28;20051;-74
2022/03/23 02:04:58;;;;;;;0.00;0.00;;;8.80;53.90;;;;;;4103001;28;20054;-72
2022/03/23 02:07:24;;;;;;;0.00;0.00;;;8.70;54.20;;;;;;4090370;28;20055;-73
2022/03/23 02:09:50;;;;;;;0.00;0.00;;;8.70;54.30;;;;;;4102789;28;20465;-73
2022/03/23 02:12:23;;;;;;;0.00;0.00;;;8.70;54.30;;;;;;4101868;28;20051;-73
2022/03/23 02:14:55;;;;;;;0.00;0.00;;;8.70;54.30;;;;;;4116703;28;20178;-72
2022/03/23 02:17:19;;;;;;;0.00;0.00;;;8.70;54.30;;;;;;4089492;28;20058;-72
2022/03/23 02:19:42;;;;;;;0.00;0.00;;;8.60;54.50;;;;;;4076252;28;20427;-73
2022/03/23 02:22:09;;;;;;;0.00;0.00;;;8.60;54.40;;;;;;4089578;28;20067;-72
2022/03/23 02:24:48;;;;;;;0.00;0.00;;;8.70;54.20;;;;;;4096562;29;20114;-74
2022/03/23 02:27:10;;;;;;;0.00;0.00;;;8.60;54.30;;;;;;4095411;28;20089;-73
2022/03/23 02:29:34;;;;;;;0.00;0.00;;;8.60;54.40;;;;;;4089311;28;20047;-74
2022/03/23 02:32:01;;;;;;;0.00;0.00;;;8.60;54.40;;;;;;4074571;29;20505;-73
2022/03/23 02:34:25;;;;;;;0.00;0.00;;;8.50;54.40;;;;;;4073316;29;20147;-75
2022/03/23 02:36:53;;;;;;;0.00;0.00;;;8.60;54.30;;;;;;4086618;29;20383;-73
2022/03/23 02:39:15;;;;;;;0.00;0.00;;;8.60;54.30;;;;;;4086547;29;20062;-74
2022/03/23 02:41:39;;;;;;;0.00;0.00;;;8.40;54.70;;;;;;4073341;29;20610;-74
2022/03/23 02:44:05;;;;;;;0.00;0.00;;;8.30;54.80;;;;;;4085604;29;20051;-73
2022/03/23 02:46:35;;;;;;;0.00;0.00;;;8.40;54.90;;;;;;4102155;28;20461;-75
2022/03/23 02:48:59;;;;;;;0.00;0.00;;;8.40;55.10;;;;;;4095052;28;20064;-73
2022/03/23 02:51:23;;;;;;;0.00;0.00;;;8.40;55.30;;;;;;4086430;29;20056;-74
2022/03/23 03:02:40;;;;;;;0.00;0.00;;;8.50;57.00;;;;;;4090818;28;20078;-73
2022/03/23 03:05:09;;;;;;;0.00;0.00;;;8.40;57.20;;;;;;4094098;28;20059;-73
2022/03/23 03:08:44;;;;;;;0.00;0.00;;;8.40;57.80;;;;;;4099540;29;20521;-71
2022/03/23 03:10:18;;;;;;;0.00;0.00;;;8.40;58.40;;;;;;4072147;28;20131;-73
2022/03/23 03:12:43;;;;;;;0.00;0.00;;;8.50;58.90;;;;;;4073337;29;20051;-73
2022/03/23 03:15:13;;;;;;;0.00;0.00;;;8.40;58.80;;;;;;4095295;28;20055;-73
2022/03/23 03:17:46;;;;;;;0.00;0.00;;;8.40;58.40;;;;;;4085960;29;20106;-73
2022/03/23 03:20:11;;;;;;;0.00;0.00;;;8.40;58.10;;;;;;4085710;28;20067;-74
2022/03/23 03:22:41;;;;;;;0.00;0.00;;;8.40;57.70;;;;;;4086244;29;20044;-76
2022/03/23 03:25:15;;;;;;;0.00;0.00;;;8.40;57.50;;;;;;4086109;29;20124;-75
2022/03/23 03:27:40;;;;;;;0.00;0.00;;;8.40;57.10;;;;;;4059713;29;20113;-75
2022/03/23 03:30:07;;;;;;;0.00;0.00;;;8.30;56.40;;;;;;4099294;29;20416;-72
2022/03/23 03:32:29;;;;;;;0.00;0.00;;;8.30;56.20;;;;;;4085491;29;20044;-73
2022/03/23 03:34:55;;;;;;;0.00;0.00;;;8.30;55.80;;;;;;4098861;28;20060;-73
2022/03/23 03:37:17;;;;;;;0.00;0.00;;;8.30;55.60;;;;;;4085996;29;20470;-74
2022/03/23 03:39:44;;;;;;;0.00;0.00;;;8.20;55.40;;;;;;4086202;29;20090;-73
2022/03/23 03:42:07;;;;;;;0.00;0.00;;;8.20;55.30;;;;;;4085763;28;20063;-72
2022/03/23 03:44:31;;;;;;;0.00;0.00;;;8.20;55.20;;;;;;4115673;28;20054;-74
2022/03/23 03:47:06;;;;;;;0.00;0.00;;;8.20;55.20;;;;;;4115470;28;20047;-73
2022/03/23 03:49:31;;;;;;;0.00;0.00;;;8.20;55.30;;;;;;4099194;28;20070;-73
2022/03/23 03:51:53;;;;;;;0.00;0.00;;;8.10;55.30;;;;;;4085904;29;20075;-74
2022/03/23 03:54:15;;;;;;;0.00;0.00;;;8.00;55.40;;;;;;4073816;28;20057;-74
2022/03/23 03:56:37;;;;;;;0.00;0.00;;;8.00;55.50;;;;;;4104694;28;20047;-74
2022/03/23 03:58:59;;;;;;;0.00;0.00;;;8.00;55.50;;;;;;4071245;29;20056;-73
2022/03/23 04:01:23;;;;;;;0.00;0.00;;;8.00;55.50;;;;;;4088918;29;20057;-72
2022/03/23 04:03:48;;;;;;;0.00;0.00;;;8.00;55.60;;;;;;4089325;28;20047;-74
2022/03/23 04:06:10;;;;;;;0.00;0.00;;;8.00;55.50;;;;;;4104453;28;20077;-72
2022/03/23 04:08:37;;;;;;;0.00;0.00;;;8.00;55.60;;;;;;4104476;28;20057;-75
2022/03/23 04:10:59;;;;;;;0.00;0.00;;;7.90;55.80;;;;;;4091304;28;20122;-74
2022/03/23 04:13:21;;;;;;;0.00;0.00;;;7.90;56.20;;;;;;4104706;28;20047;-74
2022/03/23 04:15:46;;;;;;;0.00;0.00;;;7.90;56.50;;;;;;4091154;28;20049;-75
2022/03/23 04:18:10;;;;;;;0.00;0.00;;;7.90;56.60;;;;;;4117735;28;20042;-71
2022/03/23 04:20:35;;;;;;;0.00;0.00;;;7.90;56.70;;;;;;4103964;28;20087;-73
2022/03/23 04:23:00;;;;;;;0.00;0.00;;;7.80;56.80;;;;;;4091142;28;20115;-73
2022/03/23 04:25:27;;;;;;;0.00;0.00;;;7.80;56.90;;;;;;4104413;28;20067;-77
2022/03/23 04:27:49;;;;;;;0.00;0.00;;;7.80;57.10;;;;;;4104500;28;20114;-76
2022/03/23 04:30:16;;;;;;;0.00;0.00;;;7.80;57.10;;;;;;4088426;28;20064;-73
2022/03/23 04:32:38;;;;;;;0.00;0.00;;;7.80;57.10;;;;;;4088443;29;20048;-76
2022/03/23 04:35:04;;;;;;;0.00;0.00;;;7.80;57.10;;;;;;4075828;29;20055;-73
2022/03/23 04:37:29;;;;;;;0.00;0.00;;;7.70;56.90;;;;;;4088653;29;20052;-76
2022/03/23 04:39:51;;;;;;;0.00;0.00;;;7.70;56.90;;;;;;4088779;29;20044;-75
2022/03/23 04:42:15;;;;;;;0.00;0.00;;;7.70;56.80;;;;;;4089027;28;20126;-72
2022/03/23 04:44:37;;;;;;;0.00;0.00;;;7.70;56.90;;;;;;4091145;28;20051;-72
2022/03/23 04:47:02;;;;;;;0.00;0.00;;;7.70;56.80;;;;;;4103894;28;20058;-74
2022/03/23 04:49:26;;;;;;;0.00;0.00;;;7.70;56.80;;;;;;4103806;28;20058;-72
2022/03/23 04:51:53;;;;;;;0.00;0.00;;;7.70;56.90;;;;;;4104012;28;20142;-71
2022/03/23 04:54:22;;;;;;;0.00;0.00;;;7.70;57.00;;;;;;4091122;28;20479;-74
2022/03/23 04:56:44;;;;;;;0.00;0.00;;;7.70;57.30;;;;;;4099028;28;20048;-77
2022/03/23 04:59:06;;;;;;;0.00;0.00;;;7.60;57.80;;;;;;4088705;29;20052;-73
2022/03/23 05:01:28;;;;;;;0.00;0.00;;;7.60;58.30;;;;;;4062047;29;20093;-73
2022/03/23 05:03:53;;;;;;;0.00;0.00;;;7.60;58.50;;;;;;4088292;29;20075;-72
2022/03/23 05:06:15;;;;;;;0.00;0.00;;;7.60;58.60;;;;;;4088925;28;20055;-73
2022/03/23 05:08:39;;;;;;;0.00;0.00;;;7.70;58.60;;;;;;4104321;28;20047;-74
2022/03/23 05:11:08;;;;;;;0.00;0.00;;;7.60;58.50;;;;;;4090810;28;20058;-74
2022/03/23 05:13:30;;;;;;;0.00;0.00;;;7.60;58.40;;;;;;4090690;28;20039;-73
2022/03/23 05:15:52;;;;;;;0.00;0.00;;;7.60;58.40;;;;;;4076773;29;20463;-72
2022/03/23 05:18:15;;;;;;;0.00;0.00;;;7.50;58.40;;;;;;4103280;28;20398;-74
2022/03/23 05:20:39;;;;;;;0.00;0.00;;;7.50;58.80;;;;;;4099858;28;20040;-73
2022/03/23 05:23:02;;;;;;;0.00;0.00;;;7.40;58.20;;;;;;4088240;29;20095;-73
2022/03/23 05:25:26;;;;;;;0.00;0.00;;;7.20;58.20;;;;;;4075265;29;20059;-72
2022/03/23 05:27:48;;;;;;;0.00;0.00;;;7.20;58.60;;;;;;4101096;28;20385;-75
2022/03/23 05:30:13;;;;;;;0.00;0.00;;;7.20;58.70;;;;;;4087901;28;20481;-76
2022/03/23 05:32:39;;;;;;;0.00;0.00;;;7.30;58.70;;;;;;4090125;28;20047;-74
2022/03/23 05:35:04;;;;;;;0.00;0.00;;;7.30;58.70;;;;;;4103580;28;20062;-75
2022/03/23 05:37:26;;;;;;;0.00;0.00;;;7.40;58.80;;;;;;4092696;29;20095;-73
2022/03/23 05:39:51;;;;;;;0.00;0.00;;;7.30;58.90;;;;;;4087796;29;20048;-74
2022/03/23 05:42:13;;;;;;;0.00;0.00;;;7.30;58.80;;;;;;4075417;28;20056;-73
2022/03/23 05:44:41;;;;;;;0.00;0.00;;;7.30;58.70;;;;;;4117153;28;20047;-73
2022/03/23 05:47:04;;;;;;;0.00;0.00;;;7.40;58.70;;;;;;4117010;28;20062;-74
2022/03/23 05:49:27;;;;;;;0.00;0.00;;;7.30;58.60;;;;;;4089604;28;20055;-73
2022/03/23 05:51:49;;;;;;;0.00;0.00;;;7.30;58.70;;;;;;4076901;28;20119;-72
2022/03/23 05:54:14;;;;;;;0.00;0.00;;;7.30;58.70;;;;;;4102772;28;20047;-74
2022/03/23 05:56:36;;;;;;;0.00;0.00;;;7.30;59.00;;;;;;4099292;28;20044;-76
2022/03/23 05:58:58;;;;;;;0.00;0.00;;;7.40;59.20;;;;;;4087372;29;20047;-74
2022/03/23 06:01:24;;;;;;;0.00;0.00;;;7.50;58.80;;;;;;4074246;29;20056;-73
2022/03/23 06:03:49;;;;;;;0.00;0.00;;;7.60;58.90;;;;;;4087398;29;20083;-74
2022/03/23 06:06:16;;;;;;;0.00;0.00;;;7.70;58.90;;;;;;4102821;28;20459;-75
2022/03/23 06:08:41;;;;;;;0.00;0.00;;;7.90;58.50;;;;;;4098452;29;20123;-74
2022/03/23 06:11:05;;;;;;;0.00;0.00;;;7.90;58.60;;;;;;4087442;29;20056;-73
2022/03/23 06:13:30;;;;;;;0.00;0.00;;;8.10;58.30;;;;;;4085348;28;20390;-72
2022/03/23 06:15:54;;;;;;;0.00;0.00;;;8.30;58.00;;;;;;4089034;28;20063;-71
2022/03/23 06:18:16;;;;;;;0.00;0.00;;;8.50;58.10;;;;;;4075257;28;20052;-75
2022/03/23 06:20:41;;;;;;;0.00;0.00;;;8.60;57.90;;;;;;4089905;28;20420;-72
2022/03/23 06:23:08;;;;;;;0.00;0.00;;;8.80;58.00;;;;;;4089708;28;20052;-72
2022/03/23 06:25:32;;;;;;;0.00;0.00;;;8.90;58.30;;;;;;4089781;28;20431;-75
2022/03/23 06:27:54;;;;;;;0.00;0.00;;;9.00;58.50;;;;;;4089803;28;20054;-74
2022/03/23 06:30:21;;;;;;;0.00;0.00;;;9.10;58.80;;;;;;4102413;28;20047;-73
2022/03/23 06:32:45;;;;;;;0.00;0.00;;;9.30;58.70;;;;;;4097893;28;20047;-72
2022/03/23 06:35:08;;;;;;;0.00;0.00;;;9.40;58.50;;;;;;4087018;29;20057;-74
2022/03/23 06:37:30;;;;;;;0.00;0.00;;;9.60;58.50;;;;;;4087957;28;20445;-74
2022/03/23 06:39:52;;;;;;;0.00;0.00;;;9.40;58.10;;;;;;4130913;28;20432;-73
2022/03/23 06:42:17;;;;;;;0.00;0.00;;;9.70;58.10;;;;;;4132525;28;20050;-72
2022/03/23 06:44:40;;;;;;;0.00;0.00;;;9.80;57.80;;;;;;4132656;28;20057;-73
2022/03/23 06:47:04;;;;;;;0.00;0.00;;;10.10;57.60;;;;;;4132699;28;20042;-73
2022/03/23 06:49:29;;;;;;;0.00;0.00;;;10.10;57.40;;;;;;4119150;28;20062;-75
2022/03/23 06:51:51;;;;;;;0.00;0.00;;;10.30;56.90;;;;;;4118535;28;20160;-72
2022/03/23 06:54:19;;;;;;;0.00;0.00;;;10.30;56.40;;;;;;4131729;28;20080;-73
2022/03/23 06:56:41;;;;;;;0.00;0.00;;;10.40;55.70;;;;;;4132153;28;20046;-72
2022/03/23 06:59:06;;;;;;;0.00;0.00;;;10.30;55.00;;;;;;4105381;28;20074;-75
2022/03/23 07:01:28;;;;;;;0.00;0.00;;;10.50;54.80;;;;;;4107136;28;20109;-73
2022/03/23 07:03:53;;;;;;;0.00;0.00;;;10.80;54.20;;;;;;4114088;28;20122;-73
2022/03/23 07:06:17;;;;;;;0.00;0.00;;;11.00;53.50;;;;;;4117039;28;20084;-73
2022/03/23 07:11:21;;;;;;;0.00;0.00;;;11.00;52.60;;;;;;4120679;28;20088;-72
2022/03/23 07:13:46;;;;;;;0.00;0.00;;;11.00;54.00;;;;;;4104913;28;20058;-72
2022/03/23 07:16:07;;;;;;;0.00;0.00;;;11.30;54.20;;;;;;4115389;28;20394;-71
2022/03/23 07:18:32;;;;;;;0.00;0.00;;;11.00;54.70;;;;;;4104641;28;20433;-72
2022/03/23 07:20:54;;;;;;;0.00;0.00;;;10.70;55.10;;;;;;4117365;28;20051;-71
2022/03/23 07:23:17;;;;;;;0.00;0.00;;;10.70;54.80;;;;;;4130714;28;20050;-72
2022/03/23 07:25:39;;;;;;;0.00;0.00;;;10.90;54.40;;;;;;4117094;28;20046;-73
2022/03/23 07:28:02;;;;;;;0.00;0.00;;;11.20;54.00;;;;;;4118005;28;20065;-73
2022/03/23 07:30:26;;;;;;;0.00;0.00;;;11.60;53.50;;;;;;4134049;28;20066;-71
2022/03/23 07:32:53;;;;;;;0.00;0.00;;;12.10;53.40;;;;;;4136638;28;20065;-72
2022/03/23 07:35:15;;;;;;;0.00;0.00;;;12.50;53.50;;;;;;4136322;28;20058;-72
2022/03/23 07:37:40;;;;;;;0.00;0.00;;;12.80;53.50;;;;;;4137146;28;20500;-70
2022/03/23 07:40:09;;;;;;;0.00;0.00;;;13.00;53.10;;;;;;4136993;28;20070;-72
2022/03/23 07:42:31;;;;;;;0.00;0.00;;;13.00;53.10;;;;;;4123153;28;20047;-73
2022/03/23 07:44:55;;;;;;;0.00;0.00;;;13.30;53.00;;;;;;4136853;28;20052;-72
2022/03/23 07:47:17;;;;;;;0.00;0.00;;;13.50;52.40;;;;;;4121063;28;20043;-72
2022/03/23 07:49:42;;;;;;;0.00;0.00;;;13.70;52.30;;;;;;4134457;28;20050;-70
2022/03/23 07:52:07;;;;;;;0.00;0.00;;;13.50;52.10;;;;;;4148416;28;20698;-72
2022/03/23 07:54:29;;;;;;;0.00;0.00;;;12.80;53.40;;;;;;4134310;28;20042;-72
2022/03/23 07:56:51;;;;;;;0.00;0.00;;;12.70;54.10;;;;;;4121413;28;20101;-72
2022/03/23 07:59:15;;;;;;;0.00;0.00;;;13.30;54.20;;;;;;4121226;28;20047;-72
2022/03/23 08:01:37;;;;;;;0.00;0.00;;;14.00;53.20;;;;;;4134434;28;20050;-74
2022/03/23 08:04:00;;;;;;;0.00;0.00;;;13.60;53.30;;;;;;4134980;28;20050;-73
2022/03/23 08:06:28;;;;;;;0.00;0.00;;;13.30;54.10;;;;;;4121125;28;20396;-73
2022/03/23 08:08:50;;;;;;;0.00;0.00;;;13.40;53.90;;;;;;4121365;28;20389;-72
2022/03/23 08:11:16;;;;;;;0.00;0.00;;;13.10;53.60;;;;;;4148229;28;20060;-72
2022/03/23 08:13:40;;;;;;;0.00;0.00;;;12.80;53.80;;;;;;4134937;28;20421;-74
2022/03/23 08:16:05;;;;;;;0.00;0.00;;;12.90;52.30;;;;;;4118892;28;20057;-74
2022/03/23 08:18:27;;;;;;;0.00;0.00;;;13.30;50.50;;;;;;4134359;28;20046;-72
2022/03/23 08:20:50;;;;;;;0.00;0.00;;;13.50;50.30;;;;;;4134819;28;20065;-75
2022/03/23 08:23:15;;;;;;;0.00;0.00;;;13.60;50.40;;;;;;4134621;28;20492;-75
2022/03/23 08:25:41;;;;;;;0.00;0.00;;;13.30;51.30;;;;;;4122919;28;20082;-74
2022/03/23 08:28:06;;;;;;;0.00;0.00;;;12.90;52.20;;;;;;4134240;28;20062;-77
2022/03/23 08:30:28;;;;;;;0.00;0.00;;;12.70;52.80;;;;;;4131058;28;20105;-72
2022/03/23 08:32:56;;;;;;;0.00;0.00;;;13.00;52.70;;;;;;4105020;28;20512;-71
2022/03/23 08:35:19;;;;;;;0.00;0.00;;;13.10;52.50;;;;;;4091332;28;20054;-74
2022/03/23 08:37:43;;;;;;;0.00;0.00;;;13.50;52.00;;;;;;4104739;28;20083;-73
2022/03/23 08:40:06;;;;;;;0.00;0.00;;;13.80;50.80;;;;;;4104393;28;20051;-74
2022/03/23 08:42:30;;;;;;;0.00;0.00;;;14.00;50.50;;;;;;4104021;28;20058;-73
2022/03/23 08:44:52;;;;;;;0.00;0.00;;;13.60;49.70;;;;;;4104509;28;20066;-72
2022/03/23 08:47:17;;;;;;;0.00;0.00;;;13.50;49.20;;;;;;4104695;28;20066;-72
2022/03/23 08:49:41;;;;;;;0.00;0.00;;;13.80;48.90;;;;;;4131460;28;20054;-72
2022/03/23 08:52:06;;;;;;;0.00;0.00;;;13.50;48.90;;;;;;4104807;28;20134;-73
2022/03/23 08:54:33;;;;;;;0.00;0.00;;;13.60;48.60;;;;;;4117328;28;20145;-75
2022/03/23 08:56:55;;;;;;;0.00;0.00;;;14.10;49.20;;;;;;4104707;28;20552;-71
2022/03/23 08:59:17;;;;;;;0.00;0.00;;;13.70;50.20;;;;;;4104713;28;20053;-74
2022/03/23 09:01:40;;;;;;;0.00;0.00;;;13.80;50.00;;;;;;4104366;28;20079;-73
2022/03/23 09:04:04;;;;;;;0.00;0.00;;;13.60;50.00;;;;;;4117749;28;20043;-74
2022/03/23 09:06:26;;;;;;;0.00;0.00;;;13.40;50.60;;;;;;4130649;28;20046;-70
2022/03/23 09:08:51;;;;;;;0.00;0.00;;;13.30;51.20;;;;;;4117753;28;20134;-72
2022/03/23 09:11:17;;;;;;;0.00;0.00;;;13.60;50.30;;;;;;4131315;28;20056;-72
2022/03/23 09:13:40;;;;;;;0.00;0.00;;;14.00;48.60;;;;;;4104117;28;20047;-73
2022/03/23 09:16:04;;;;;;;0.00;0.00;;;14.10;48.70;;;;;;4105876;28;20058;-72
2022/03/23 09:18:29;;;;;;;0.00;0.00;;;13.90;48.60;;;;;;4106029;28;20110;-72
2022/03/23 09:20:53;;;;;;;0.00;0.00;;;13.80;48.90;;;;;;4120506;28;20393;-71
2022/03/23 09:23:17;;;;;;;0.00;0.00;;;14.80;48.20;;;;;;4117428;28;20057;-70
2022/03/23 09:25:41;;;;;;;0.00;0.00;;;15.30;46.80;;;;;;4103771;28;20082;-74
2022/03/23 09:28:04;;;;;;;0.00;0.00;;;15.40;45.20;;;;;;4104473;28;20051;-70
2022/03/23 09:30:28;;;;;;;0.00;0.00;;;15.70;44.20;;;;;;4119228;28;20059;-70
2022/03/23 09:32:50;;;;;;;0.00;0.00;;;16.20;42.10;;;;;;4115623;28;20055;-73
2022/03/23 09:35:14;;;;;;;0.00;0.00;;;16.10;41.30;;;;;;4103875;28;20051;-71
2022/03/23 09:37:48;;;;;;;0.00;0.00;;;16.10;41.00;;;;;;4117074;28;20057;-72
2022/03/23 09:40:15;;;;;;;0.00;0.00;;;16.40;41.20;;;;;;4130344;28;20088;-70
2022/03/23 09:42:41;;;;;;;0.00;0.00;;;16.60;39.80;;;;;;4112551;28;20477;-73
2022/03/23 09:45:04;;;;;;;0.00;0.00;;;16.80;38.80;;;;;;4122568;28;20058;-72
2022/03/23 09:47:26;;;;;;;0.00;0.00;;;17.20;38.50;;;;;;4116956;28;20062;-73
2022/03/23 09:49:48;;;;;;;0.00;0.00;;;17.20;38.80;;;;;;4119183;28;20046;-72
2022/03/23 09:52:14;;;;;;;0.00;0.00;;;17.70;38.80;;;;;;4105854;28;20050;-72
2022/03/23 09:54:36;;;;;;;0.00;0.00;;;17.90;38.60;;;;;;4106341;28;20043;-72
2022/03/23 09:56:58;;;;;;;0.00;0.00;;;18.30;38.30;;;;;;4119366;28;20125;-72
2022/03/23 09:59:22;;;;;;;0.00;0.00;;;18.70;38.10;;;;;;4119282;28;20047;-71
2022/03/23 10:01:47;;;;;;;0.00;0.00;;;18.80;36.90;;;;;;4106356;28;20102;-72
2022/03/23 10:04:12;;;;;;;0.00;0.00;;;18.20;37.30;;;;;;4117015;28;20051;-70
2022/03/23 10:06:53;;;;;;;0.00;0.00;;;17.70;37.10;;;;;;4119308;28;20528;-72
2022/03/23 10:09:54;;;;;;;0.00;0.00;;;17.20;37.50;;;;;;4132821;28;20495;-72
2022/03/23 10:12:42;;;;;;;0.00;0.00;;;17.00;38.60;;;;;;4118516;28;20054;-71
2022/03/23 10:15:35;;;;;;;0.00;0.00;;;16.90;38.70;;;;;;4098123;28;20050;-73
2022/03/23 10:18:08;;;;;;;0.00;0.00;;;16.60;39.10;;;;;;4119135;28;20069;-71
2022/03/23 10:20:36;;;;;;;0.00;0.00;;;16.40;40.20;;;;;;4106472;28;20101;-72
2022/03/23 10:23:05;;;;;;;0.00;0.00;;;17.10;40.20;;;;;;4118776;28;20046;-71
2022/03/23 10:25:28;;;;;;;0.00;0.00;;;17.70;39.40;;;;;;4105608;28;20050;-71
2022/03/23 10:27:50;;;;;;;0.00;0.00;;;18.10;38.90;;;;;;4105422;28;20130;-72
2022/03/23 10:30:16;;;;;;;0.00;0.00;;;18.50;38.70;;;;;;4132249;28;20089;-72
2022/03/23 10:32:42;;;;;;;0.00;0.00;;;19.20;38.50;;;;;;4119066;28;20054;-71
2022/03/23 10:35:13;;;;;;;0.00;0.00;;;19.40;37.90;;;;;;4118942;28;20425;-73
2022/03/23 10:37:35;;;;;;;0.00;0.00;;;19.90;36.40;;;;;;4116154;28;20082;-72
2022/03/23 10:40:10;;;;;;;0.00;0.00;;;19.60;36.10;;;;;;4102530;28;20083;-72
2022/03/23 10:42:34;;;;;;;0.00;0.00;;;19.30;37.20;;;;;;4104798;28;20524;-71
2022/03/23 10:45:11;;;;;;;0.00;0.00;;;18.90;38.10;;;;;;4103814;28;20074;-73
2022/03/23 10:47:33;;;;;;;0.00;0.00;;;19.40;37.70;;;;;;4116069;28;20460;-73
2022/03/23 10:49:55;;;;;;;0.00;0.00;;;19.40;37.10;;;;;;4115927;28;20494;-74
2022/03/23 10:52:21;;;;;;;0.00;0.00;;;19.70;36.90;;;;;;4118001;28;20057;-72
2022/03/23 10:54:53;;;;;;;0.00;0.00;;;19.90;36.60;;;;;;4118568;28;20078;-72
2022/03/23 10:57:16;;;;;;;0.00;0.00;;;19.80;35.70;;;;;;4118459;28;20098;-71
2022/03/23 10:59:45;;;;;;;0.00;0.00;;;18.90;35.90;;;;;;4105048;28;20043;-72
2022/03/23 11:02:10;;;;;;;0.00;0.00;;;18.30;37.00;;;;;;4131637;28;20058;-71
2022/03/23 11:04:51;;;;;;;0.00;0.00;;;18.20;37.30;;;;;;4106344;28;20105;-71
2022/03/23 11:07:29;;;;;;;0.00;0.00;;;18.70;37.10;;;;;;4118912;28;20058;-73
2022/03/23 11:18:12;;;;;;;0.00;0.00;;;20.70;35.60;;;;;;4102389;28;20055;-71
2022/03/23 11:20:55;;;;;;;0.00;0.00;;;20.90;35.00;;;;;;4115490;28;20057;-71
2022/03/23 11:23:19;;;;;;;0.00;0.00;;;21.70;33.90;;;;;;4115987;28;20094;-71
2022/03/23 11:25:44;;;;;;;0.00;0.00;;;22.20;33.70;;;;;;4092017;28;20055;-72
2022/03/23 11:28:08;;;;;;;0.00;0.00;;;22.50;32.70;;;;;;4101904;28;20055;-72
2022/03/23 11:30:37;;;;;;;0.00;0.00;;;22.00;31.90;;;;;;4104640;28;20469;-70
2022/03/23 11:32:59;;;;;;;0.00;0.00;;;20.60;32.80;;;;;;4131776;28;20147;-71
2022/03/23 11:35:22;;;;;;;0.00;0.00;;;19.80;33.80;;;;;;4118453;28;20107;-73
2022/03/23 11:37:48;;;;;;;0.00;0.00;;;19.30;35.20;;;;;;4105562;28;20493;-73
2022/03/23 11:40:13;;;;;;;0.00;0.00;;;19.50;35.10;;;;;;4105000;28;20046;-71
2022/03/23 11:42:40;;;;;;;0.00;0.00;;;19.70;35.50;;;;;;4118124;28;20101;-72
2022/03/23 11:45:04;;;;;;;0.00;0.00;;;20.40;35.30;;;;;;4117971;28;20105;-71
2022/03/23 11:47:44;;;;;;;0.00;0.00;;;21.20;33.70;;;;;;4131600;28;20042;-73
2022/03/23 11:50:29;;;;;;;0.00;0.00;;;20.60;33.70;;;;;;4102197;28;20066;-72
2022/03/23 11:53:14;;;;;;;0.00;0.00;;;19.70;35.20;;;;;;4117928;28;20061;-72
2022/03/23 11:55:40;;;;;;;0.00;0.00;;;20.80;34.80;;;;;;4104687;28;20051;-71
2022/03/23 11:58:23;;;;;;;0.00;0.00;;;21.60;33.80;;;;;;4104343;28;20078;-71
2022/03/23 12:00:52;;;;;;;0.00;0.00;;;22.20;32.90;;;;;;4117791;28;20143;-70
2022/03/23 12:03:41;;;;;;;0.00;0.00;;;22.60;32.50;;;;;;4105191;28;20047;-70
2022/03/23 12:06:11;;;;;;;0.00;0.00;;;22.10;32.80;;;;;;4117822;28;20054;-70
2022/03/23 12:08:51;;;;;;;0.00;0.00;;;22.40;33.30;;;;;;4092236;28;20450;-72
2022/03/23 12:11:44;;;;;;;0.00;0.00;;;23.10;33.00;;;;;;4117972;28;20491;-71
2022/03/23 12:14:23;;;;;;;0.00;0.00;;;23.60;32.60;;;;;;4104326;28;20078;-71
2022/03/23 12:16:51;;;;;;;0.00;0.00;;;23.20;32.50;;;;;;4133367;28;20042;-71
2022/03/23 12:20:03;;;;;;;0.00;0.00;;;22.50;32.50;;;;;;4110232;28;20050;-70
2022/03/23 12:22:48;;;;;;;0.00;0.00;;;22.20;33.70;;;;;;4106604;28;20150;-72
2022/03/23 12:25:20;;;;;;;0.00;0.00;;;22.80;32.90;;;;;;4120933;28;20094;-73
2022/03/23 12:28:21;;;;;;;0.00;0.00;;;23.00;32.70;;;;;;4107385;28;20097;-71
2022/03/23 12:31:01;;;;;;;0.00;0.00;;;23.10;33.00;;;;;;4109420;28;20047;-71
2022/03/23 12:33:28;;;;;;;0.00;0.00;;;23.50;32.50;;;;;;4120510;28;20042;-70
2022/03/23 12:36:02;;;;;;;0.00;0.00;;;23.90;31.70;;;;;;4106954;28;20055;-72
2022/03/23 12:38:28;;;;;;;0.00;0.00;;;23.40;31.90;;;;;;4133718;28;20065;-71
2022/03/23 12:40:50;;;;;;;0.00;0.00;;;23.10;32.30;;;;;;4134059;28;20050;-72
2022/03/23 12:43:46;;;;;;;0.00;0.00;;;22.40;32.70;;;;;;4120448;28;20066;-72
2022/03/23 12:46:22;;;;;;;0.00;0.00;;;22.70;32.30;;;;;;4120039;28;20533;-72
2022/03/23 12:57:50;;;;;;;0.00;0.00;;;22.10;32.00;;;;;;4133969;28;20483;-71
2022/03/23 13:00:25;;;;;;;0.00;0.00;;;22.70;31.20;;;;;;4106549;28;20046;-73
2022/03/23 13:02:50;;;;;;;0.00;0.00;;;22.00;31.20;;;;;;4133679;28;20046;-71
2022/03/23 13:05:19;;;;;;;0.00;0.00;;;22.20;31.30;;;;;;4107492;28;20061;-74
2022/03/23 13:07:41;;;;;;;0.00;0.00;;;22.50;30.80;;;;;;4120316;28;20121;-72
2022/03/23 13:10:11;;;;;;;0.00;0.00;;;22.90;30.80;;;;;;4107150;28;20054;-71
2022/03/23 13:12:38;;;;;;;0.00;0.00;;;23.00;30.50;;;;;;4121458;28;20104;-71
2022/03/23 13:15:09;;;;;;;0.00;0.00;;;22.60;30.60;;;;;;4107048;28;20046;-75
2022/03/23 13:17:38;;;;;;;0.00;0.00;;;22.30;30.60;;;;;;4120249;28;20070;-72
2022/03/23 13:20:00;;;;;;;0.00;0.00;;;22.50;30.80;;;;;;4120243;28;20051;-71